createdAt,value
2023-01-09T00:02:25.890Z,5.07
2023-01-09T00:04:54.748Z,5.22
2023-01-09T00:07:22.207Z,5.50
2023-01-09T00:09:50.486Z,5.45
2023-01-09T00:12:18.071Z,4.38
2023-01-09T00:14:45.626Z,5.10
2023-01-09T00:17:13.033Z,5.85
2023-01-09T00:19:40.709Z,5.30
2023-01-09T00:22:09.706Z,5.32
2023-01-09T00:24:37.417Z,5.65
2023-01-09T00:27:05.973Z,5.95
2023-01-09T00:29:33.542Z,5.07
2023-01-09T00:32:01.063Z,5.18
2023-01-09T00:34:29.069Z,5.47
2023-01-09T00:36:57.054Z,5.75
2023-01-09T00:39:25.963Z,6.20
2023-01-09T00:41:56.394Z,5.83
2023-01-09T00:44:25.961Z,5.72
2023-01-09T00:46:56.702Z,5.72
2023-01-09T00:49:24.851Z,5.93
2023-01-09T00:51:55.175Z,6.13
2023-01-09T00:54:23.590Z,6.47
2023-01-09T00:56:52.495Z,5.88
2023-01-09T00:59:19.966Z,6.20
2023-01-09T01:01:47.556Z,6.50
2023-01-09T01:04:15.116Z,6.38
2023-01-09T01:06:42.589Z,6.13
2023-01-09T01:09:10.092Z,6.43
2023-01-09T01:11:37.576Z,6.30
2023-01-09T01:14:06.448Z,6.47
2023-01-09T01:16:33.984Z,6.20
2023-01-09T01:19:01.476Z,6.10
2023-01-09T01:21:28.928Z,5.80
2023-01-09T01:23:56.366Z,6.28
2023-01-09T01:26:24.408Z,6.75
2023-01-09T01:28:51.870Z,6.40
2023-01-09T01:31:21.289Z,5.60
2023-01-09T01:33:48.791Z,5.63
2023-01-09T01:36:16.225Z,6.28
2023-01-09T01:38:44.509Z,6.57
2023-01-09T01:41:11.955Z,6.10
2023-01-09T01:43:52.860Z,5.80
2023-01-09T01:46:22.093Z,6.55
2023-01-09T01:48:54.365Z,6.00
2023-01-09T01:51:25.107Z,5.68
2023-01-09T01:53:59.643Z,6.53
2023-01-09T01:56:30.519Z,6.20
2023-01-09T01:59:03.522Z,5.85
2023-01-09T02:01:33.003Z,5.80
2023-01-09T02:04:02.451Z,6.22
2023-01-09T02:06:31.060Z,5.97
2023-01-09T02:08:58.724Z,6.30
2023-01-09T02:11:27.264Z,6.63
2023-01-09T02:13:54.768Z,6.80
2023-01-09T02:16:44.623Z,6.40
2023-01-09T02:19:35.554Z,6.75
2023-01-09T02:22:12.835Z,5.97
2023-01-09T02:25:08.482Z,6.40
2023-01-09T02:28:08.883Z,7.00
2023-01-09T02:30:43.979Z,7.22
2023-01-09T02:33:42.633Z,7.93
2023-01-09T02:36:21.722Z,8.23
2023-01-09T02:38:59.980Z,6.93
2023-01-09T02:41:33.435Z,7.05
2023-01-09T02:44:16.314Z,7.28
2023-01-09T02:46:45.285Z,7.22
2023-01-09T02:49:13.809Z,7.20
2023-01-09T02:51:49.972Z,6.30
2023-01-09T02:54:29.556Z,5.90
2023-01-09T02:57:11.801Z,7.00
2023-01-09T02:59:54.028Z,5.13
2023-01-09T03:02:39.244Z,12.85
2023-01-09T03:05:13.809Z,7.07
2023-01-09T03:07:45.699Z,7.53
2023-01-09T03:10:20.222Z,6.50
2023-01-09T03:12:52.720Z,7.00
2023-01-09T03:15:24.737Z,6.53
2023-01-09T03:17:55.924Z,5.82
2023-01-09T03:20:26.208Z,5.50
2023-01-09T03:22:55.047Z,5.88
2023-01-09T03:25:22.699Z,5.63
2023-01-09T03:27:54.123Z,5.82
2023-01-09T03:30:21.998Z,6.90
2023-01-09T03:32:50.129Z,6.43
2023-01-09T03:35:19.023Z,6.43
2023-01-09T03:37:46.819Z,5.72
2023-01-09T03:40:14.704Z,5.45
2023-01-09T03:42:42.295Z,5.80
2023-01-09T03:45:10.336Z,5.38
2023-01-09T03:47:37.815Z,6.32
2023-01-09T03:50:06.361Z,5.47
2023-01-09T03:52:35.366Z,6.47
2023-01-09T03:55:02.940Z,6.68
2023-01-09T03:57:30.420Z,6.45
2023-01-09T03:59:57.901Z,6.22
2023-01-09T04:02:25.415Z,6.82
2023-01-09T04:04:53.075Z,7.25
2023-01-09T04:07:20.492Z,9.55
2023-01-09T04:09:49.930Z,9.98
2023-01-09T04:12:17.546Z,10.00
2023-01-09T04:14:45.136Z,9.43
2023-01-09T04:17:12.626Z,8.25
2023-01-09T04:19:40.096Z,8.00
2023-01-09T04:22:08.397Z,134.40
2023-01-09T04:24:36.373Z,13.82
2023-01-09T04:27:05.393Z,14.10
2023-01-09T04:29:32.920Z,13.65
2023-01-09T04:32:00.495Z,13.30
2023-01-09T04:34:28.117Z,13.02
2023-01-09T04:36:55.737Z,11.95
2023-01-09T04:39:23.479Z,13.02
2023-01-09T04:41:51.016Z,11.48
2023-01-09T04:44:21.785Z,11.02
2023-01-09T04:46:49.666Z,10.60
2023-01-09T04:49:17.316Z,13.30
2023-01-09T04:51:44.838Z,11.15
2023-01-09T04:54:12.340Z,11.80
2023-01-09T04:56:40.220Z,13.18
2023-01-09T04:59:08.153Z,11.75
2023-01-09T05:01:37.496Z,11.80
2023-01-09T05:04:05.987Z,10.73
2023-01-09T05:06:33.618Z,12.05
2023-01-09T05:09:01.696Z,10.38
2023-01-09T05:11:29.401Z,10.43
2023-01-09T05:13:57.230Z,10.48
2023-01-09T05:16:24.984Z,11.70
2023-01-09T05:18:53.901Z,10.60
2023-01-09T05:21:21.586Z,11.85
2023-01-09T05:23:49.180Z,16.35
2023-01-09T05:26:16.690Z,13.85
2023-01-09T05:28:44.090Z,12.43
2023-01-09T05:31:11.699Z,14.52
2023-01-09T05:33:39.309Z,12.75
2023-01-09T05:36:09.493Z,15.98
2023-01-09T05:38:37.132Z,13.45
2023-01-09T05:41:04.788Z,12.63
2023-01-09T05:43:32.222Z,13.27
2023-01-09T05:45:59.787Z,14.02
2023-01-09T05:48:27.310Z,13.02
2023-01-09T05:50:54.923Z,14.02
2023-01-09T05:53:23.972Z,15.82
2023-01-09T05:55:51.889Z,16.45
2023-01-09T05:58:19.352Z,14.82
2023-01-09T06:00:46.920Z,16.58
2023-01-09T06:03:14.388Z,15.80
2023-01-09T06:05:41.913Z,18.83
2023-01-09T06:08:09.369Z,16.17
2023-01-09T06:10:38.353Z,16.23
2023-01-09T06:13:05.949Z,14.23
2023-01-09T06:15:33.344Z,18.20
2023-01-09T06:18:00.947Z,15.30
2023-01-09T06:20:28.688Z,15.38
2023-01-09T06:22:56.472Z,16.27
2023-01-09T06:25:24.150Z,17.13
2023-01-09T06:27:54.031Z,17.80
2023-01-09T06:32:50.395Z,17.40
2023-01-09T06:35:18.788Z,14.77
2023-01-09T06:37:46.628Z,16.15
2023-01-09T06:40:15.338Z,15.95
2023-01-09T06:42:46.483Z,15.60
2023-01-09T06:45:16.773Z,18.20
2023-01-09T06:47:44.667Z,16.33
2023-01-09T06:50:12.984Z,16.15
2023-01-09T06:52:40.632Z,15.45
2023-01-09T06:55:09.455Z,14.85
2023-01-09T06:57:37.502Z,15.43
2023-01-09T07:00:06.138Z,14.68
2023-01-09T07:02:35.186Z,13.93
2023-01-09T07:05:03.005Z,13.27
2023-01-09T07:07:30.635Z,12.75
2023-01-09T07:09:58.231Z,14.60
2023-01-09T07:12:26.594Z,16.30
2023-01-09T07:14:56.180Z,18.98
2023-01-09T07:17:25.004Z,29.20
2023-01-09T07:19:54.112Z,22.10
2023-01-09T07:22:21.696Z,17.85
2023-01-09T07:24:49.213Z,29.40
2023-01-09T07:27:17.892Z,17.30
2023-01-09T07:29:45.824Z,16.52
2023-01-09T07:32:13.307Z,18.00
2023-01-09T07:34:41.020Z,17.45
2023-01-09T07:37:09.926Z,16.95
2023-01-09T07:39:37.473Z,22.23
2023-01-09T07:42:05.147Z,21.52
2023-01-09T07:44:33.283Z,19.70
2023-01-09T07:47:01.028Z,20.33
2023-01-09T07:49:28.479Z,18.77
2023-01-09T07:51:56.724Z,25.75
2023-01-09T07:54:25.806Z,27.73
2023-01-09T07:56:53.324Z,21.50
2023-01-09T07:59:21.627Z,19.00
2023-01-09T08:01:49.414Z,19.95
2023-01-09T08:04:17.138Z,19.05
2023-01-09T08:06:45.731Z,19.83
2023-01-09T08:09:13.864Z,28.75
2023-01-09T08:11:43.015Z,31.85
2023-01-09T08:14:11.503Z,25.53
2023-01-09T08:16:39.391Z,27.83
2023-01-09T08:19:06.957Z,25.48
2023-01-09T08:21:34.459Z,29.58
2023-01-09T08:24:02.488Z,31.23
2023-01-09T08:26:30.819Z,27.30
2023-01-09T08:29:00.230Z,25.63
2023-01-09T08:31:27.770Z,25.40
2023-01-09T08:33:55.392Z,23.85
2023-01-09T08:36:22.943Z,23.45
2023-01-09T08:38:50.646Z,24.05
2023-01-09T08:41:18.132Z,25.17
2023-01-09T08:43:45.706Z,23.60
2023-01-09T08:46:21.593Z,21.02
2023-01-09T08:48:49.467Z,21.30
2023-01-09T08:51:17.209Z,21.92
2023-01-09T08:53:44.798Z,19.02
2023-01-09T08:56:12.374Z,19.85
2023-01-09T08:58:39.939Z,20.58
2023-01-09T09:01:08.300Z,18.20
2023-01-09T09:03:37.708Z,20.15
2023-01-09T09:06:06.223Z,34.28
2023-01-09T09:08:33.648Z,23.83
2023-01-09T09:11:01.462Z,20.80
2023-01-09T09:13:29.178Z,19.85
2023-01-09T09:15:56.984Z,20.75
2023-01-09T09:18:24.671Z,20.25
2023-01-09T09:20:53.728Z,23.13
2023-01-09T09:23:21.289Z,23.23
2023-01-09T09:25:49.030Z,20.77
2023-01-09T09:28:16.724Z,19.75
2023-01-09T09:30:44.553Z,21.13
2023-01-09T09:33:12.581Z,22.75
2023-01-09T09:35:40.498Z,19.88
2023-01-09T09:38:11.072Z,19.95
2023-01-09T09:40:56.911Z,18.45
2023-01-09T09:43:54.137Z,24.00
2023-01-09T09:46:30.234Z,30.98
2023-01-09T09:49:02.812Z,24.63
2023-01-09T09:51:49.580Z,22.17
2023-01-09T09:54:24.208Z,22.25
2023-01-09T09:56:56.819Z,19.67
2023-01-09T09:59:27.714Z,21.35
2023-01-09T10:01:59.230Z,21.25
2023-01-09T10:04:31.048Z,21.90
2023-01-09T10:07:01.950Z,21.90
2023-01-09T10:09:40.996Z,19.98
2023-01-09T10:12:18.238Z,18.90
2023-01-09T10:14:45.915Z,18.33
2023-01-09T10:17:29.124Z,17.35
2023-01-09T10:20:20.301Z,16.77
2023-01-09T10:22:59.723Z,18.67
2023-01-09T10:25:37.199Z,17.38
2023-01-09T10:28:20.935Z,18.77
2023-01-09T10:30:52.574Z,22.45
2023-01-09T10:33:35.700Z,21.50
2023-01-09T10:36:40.508Z,15.57
2023-01-09T10:39:15.484Z,18.40
2023-01-09T10:41:54.715Z,21.27
2023-01-09T10:44:27.641Z,23.40
2023-01-09T10:46:56.525Z,22.15
2023-01-09T10:49:24.798Z,24.07
2023-01-09T10:51:59.429Z,23.35
2023-01-09T10:54:30.072Z,23.88
2023-01-09T10:57:06.309Z,25.35
2023-01-09T10:59:34.073Z,24.67
2023-01-09T11:02:02.038Z,44.10
2023-01-09T11:04:32.699Z,30.38
2023-01-09T11:07:03.500Z,64.70
2023-01-09T11:09:55.555Z,74.15
2023-01-09T11:12:26.451Z,29.40
2023-01-09T11:14:53.983Z,49.75
2023-01-09T11:17:27.279Z,40.45
2023-01-09T11:20:03.100Z,55.05
2023-01-09T11:22:43.342Z,42.22
2023-01-09T11:25:13.891Z,36.35
2023-01-09T11:27:43.400Z,48.45
2023-01-09T11:30:18.307Z,51.78
2023-01-09T11:32:47.519Z,46.38
2023-01-09T11:35:19.859Z,37.28
2023-01-09T11:37:49.887Z,39.38
2023-01-09T11:40:20.713Z,39.22
2023-01-09T11:43:14.570Z,43.30
2023-01-09T11:45:56.375Z,42.15
2023-01-09T11:48:40.949Z,41.97
2023-01-09T11:51:21.089Z,44.38
2023-01-09T11:54:01.255Z,41.53
2023-01-09T11:56:29.923Z,42.78
2023-01-09T11:58:59.555Z,43.70
2023-01-09T12:01:45.494Z,41.47
2023-01-09T12:04:21.333Z,40.50
2023-01-09T12:07:00.207Z,42.53
2023-01-09T12:09:37.320Z,43.20
2023-01-09T12:12:18.494Z,46.92
2023-01-09T12:15:10.025Z,39.88
2023-01-09T12:17:52.706Z,41.13
2023-01-09T12:20:45.933Z,45.35
2023-01-09T12:23:25.981Z,45.33
2023-01-09T12:26:05.888Z,50.60
2023-01-09T12:28:54.571Z,56.13
2023-01-09T12:31:40.078Z,69.20
2023-01-09T12:34:24.960Z,84.47
2023-01-09T12:37:02.820Z,67.80
2023-01-09T12:39:37.395Z,77.78
2023-01-09T12:42:29.259Z,72.85
2023-01-09T12:45:01.824Z,77.00
2023-01-09T12:47:45.200Z,76.07
2023-01-09T12:50:48.196Z,96.85
2023-01-09T12:53:21.496Z,73.05
2023-01-09T12:55:54.058Z,54.00
2023-01-09T12:58:31.079Z,72.88
2023-01-09T13:01:02.696Z,63.50
2023-01-09T13:03:37.440Z,55.78
2023-01-09T13:06:11.356Z,54.22
2023-01-09T13:08:43.478Z,52.33
2023-01-09T13:11:20.442Z,55.25
2023-01-09T13:13:54.702Z,49.42
2023-01-09T13:16:28.695Z,48.85
2023-01-09T13:19:03.836Z,48.63
2023-01-09T13:21:31.976Z,46.90
2023-01-09T13:24:07.308Z,43.00
2023-01-09T13:26:40.368Z,45.63
2023-01-09T13:29:12.971Z,43.38
2023-01-09T13:31:57.014Z,45.58
2023-01-09T13:34:29.681Z,46.45
2023-01-09T13:36:59.105Z,46.78
2023-01-09T13:39:29.375Z,44.65
2023-01-09T13:41:59.976Z,45.33
2023-01-09T13:44:29.034Z,42.97
2023-01-09T13:46:58.766Z,44.13
2023-01-09T13:52:01.247Z,45.00
2023-01-09T13:55:03.654Z,43.38
2023-01-09T13:57:34.101Z,39.95
2023-01-09T14:00:39.232Z,41.63
2023-01-09T14:03:19.975Z,40.47
2023-01-09T14:06:11.538Z,40.40
2023-01-09T14:08:40.661Z,39.42
2023-01-09T14:11:08.967Z,39.33
2023-01-09T14:13:41.498Z,38.42
2023-01-09T14:16:17.946Z,85.07
2023-01-09T14:18:50.915Z,41.30
2023-01-09T14:21:20.895Z,40.30
2023-01-09T14:23:59.232Z,38.25
2023-01-09T14:26:45.263Z,38.47
2023-01-09T14:29:44.699Z,36.90
2023-01-09T14:32:43.795Z,36.33
2023-01-09T14:35:16.631Z,37.53
2023-01-09T14:37:55.423Z,35.42
2023-01-09T14:40:24.276Z,33.07
2023-01-09T14:42:54.759Z,33.05
2023-01-09T14:45:24.405Z,31.80
2023-01-09T14:47:57.160Z,34.25
2023-01-09T14:50:32.459Z,33.05
2023-01-09T14:53:05.391Z,30.63
2023-01-09T14:55:40.416Z,32.70
2023-01-09T14:58:12.683Z,34.03
2023-01-09T15:00:49.639Z,31.52
2023-01-09T15:03:17.585Z,31.25
2023-01-09T15:05:46.651Z,30.02
2023-01-09T15:08:20.060Z,23.83
2023-01-09T15:10:51.176Z,21.33
2023-01-09T15:13:23.694Z,15.68
2023-01-09T15:15:51.455Z,20.15
2023-01-09T15:18:23.454Z,19.42
2023-01-09T15:20:59.189Z,20.13
2023-01-09T15:23:30.053Z,19.17
2023-01-09T15:25:58.369Z,20.63
2023-01-09T15:28:29.640Z,19.23
2023-01-09T15:31:03.078Z,21.73
2023-01-09T15:33:31.501Z,19.38
2023-01-09T15:35:59.591Z,21.08
2023-01-09T15:38:31.471Z,18.80
2023-01-09T15:41:01.213Z,18.02
2023-01-09T15:43:31.307Z,18.48
2023-01-09T15:45:59.355Z,17.75
2023-01-09T15:48:28.927Z,18.00
2023-01-09T15:51:01.390Z,18.00
2023-01-09T15:53:30.821Z,18.13
2023-01-09T15:56:07.741Z,18.23
2023-01-09T15:58:37.933Z,17.80
2023-01-09T16:01:08.380Z,18.40
2023-01-09T16:03:37.378Z,17.38
2023-01-09T16:06:09.351Z,14.90
2023-01-09T16:08:41.631Z,16.13
2023-01-09T16:11:20.752Z,13.27
2023-01-09T16:13:48.563Z,15.23
2023-01-09T16:16:25.659Z,14.48
2023-01-09T16:18:54.516Z,15.55
2023-01-09T16:21:25.293Z,15.43
2023-01-09T16:24:25.461Z,15.52
2023-01-09T16:27:11.083Z,15.02
2023-01-09T16:29:45.548Z,15.60
2023-01-09T16:32:19.899Z,15.65
2023-01-09T16:34:52.337Z,14.60
2023-01-09T16:37:21.081Z,16.00
2023-01-09T16:40:25.925Z,16.42
2023-01-09T16:42:55.827Z,14.45
2023-01-09T16:45:25.803Z,14.38
2023-01-09T16:47:53.375Z,13.98
2023-01-09T16:50:21.145Z,15.02
2023-01-09T16:52:48.764Z,14.10
2023-01-09T16:55:18.176Z,14.30
2023-01-09T16:57:46.064Z,13.80
2023-01-09T17:00:16.355Z,13.57
2023-01-09T17:02:44.514Z,14.77
2023-01-09T17:05:13.208Z,13.57
2023-01-09T17:07:41.288Z,13.98
2023-01-09T17:10:21.690Z,13.50
2023-01-09T17:12:50.016Z,13.43
2023-01-09T17:15:19.258Z,13.00
2023-01-09T17:20:16.456Z,13.45
2023-01-09T17:25:15.642Z,13.55
2023-01-09T17:27:45.957Z,13.88
2023-01-09T17:30:18.742Z,12.68
2023-01-09T17:32:46.698Z,13.20
2023-01-09T17:35:14.673Z,13.80
2023-01-09T17:37:42.713Z,13.05
2023-01-09T17:40:18.063Z,11.95
2023-01-09T17:42:47.115Z,12.50
2023-01-09T17:45:15.608Z,12.90
2023-01-09T17:47:43.112Z,12.18
2023-01-09T17:50:18.210Z,12.32
2023-01-09T17:52:45.912Z,13.32
2023-01-09T17:55:13.503Z,12.52
2023-01-09T17:57:43.203Z,11.40
2023-01-09T18:00:24.343Z,12.00
2023-01-09T18:02:51.947Z,11.55
2023-01-09T18:05:19.746Z,12.75
2023-01-09T18:07:47.641Z,11.52
2023-01-09T18:10:17.034Z,11.75
2023-01-09T18:12:48.254Z,11.30
2023-01-09T18:15:17.722Z,11.93
2023-01-09T18:17:46.525Z,11.05
2023-01-09T18:20:15.063Z,11.00
2023-01-09T18:22:46.199Z,11.25
2023-01-09T18:25:13.766Z,11.65
2023-01-09T18:27:42.210Z,11.73
2023-01-09T18:30:12.496Z,11.70
2023-01-09T18:32:41.857Z,11.05
2023-01-09T18:35:10.077Z,12.13
2023-01-09T18:37:38.155Z,12.10
2023-01-09T18:40:06.764Z,10.65
2023-01-09T18:42:34.282Z,11.32
2023-01-09T18:45:01.750Z,11.48
2023-01-09T18:47:29.338Z,10.82
2023-01-09T18:49:58.433Z,10.13
2023-01-09T18:52:25.985Z,10.57
2023-01-09T18:54:53.585Z,9.80
2023-01-09T18:57:21.337Z,10.73
2023-01-09T18:59:48.917Z,11.70
2023-01-09T19:02:20.213Z,11.23
2023-01-09T19:04:47.890Z,10.63
2023-01-09T19:07:17.336Z,11.18
2023-01-09T19:09:45.497Z,11.00
2023-01-09T19:12:13.254Z,10.90
2023-01-09T19:14:40.823Z,9.98
2023-01-09T19:17:08.384Z,10.07
2023-01-09T19:19:35.923Z,10.20
2023-01-09T19:22:03.352Z,11.00
2023-01-09T19:24:32.349Z,10.95
2023-01-09T19:27:00.663Z,10.05
2023-01-09T19:29:28.417Z,10.18
2023-01-09T19:31:56.033Z,9.73
2023-01-09T19:34:23.612Z,9.38
2023-01-09T19:36:51.600Z,10.57
2023-01-09T19:39:19.229Z,10.02
2023-01-09T19:41:48.128Z,11.02
2023-01-09T19:44:15.606Z,9.13
2023-01-09T19:46:43.035Z,10.15
2023-01-09T19:49:10.612Z,9.73
2023-01-09T19:51:38.125Z,9.27
2023-01-09T19:54:08.731Z,7.68
2023-01-09T19:56:36.409Z,8.40
2023-01-09T19:59:05.799Z,8.70
2023-01-09T20:01:35.406Z,9.13
2023-01-09T20:04:05.547Z,7.85
2023-01-09T20:06:33.581Z,7.90
2023-01-09T20:09:02.549Z,8.98
2023-01-09T20:11:31.615Z,7.60
2023-01-09T20:13:59.485Z,7.95
2023-01-09T20:16:30.257Z,8.70
2023-01-09T20:18:59.769Z,7.90
2023-01-09T20:21:28.716Z,8.32
2023-01-09T20:23:58.903Z,8.07
2023-01-09T20:26:27.652Z,7.93
2023-01-09T20:28:55.689Z,7.15
2023-01-09T20:31:24.208Z,7.95
2023-01-09T20:33:53.131Z,6.78
2023-01-09T20:36:21.014Z,6.27
2023-01-09T20:38:48.739Z,7.25
2023-01-09T20:41:17.259Z,52.03
2023-01-09T20:43:44.683Z,17.55
2023-01-09T20:46:12.184Z,6.00
2023-01-09T20:48:39.651Z,6.25
2023-01-09T20:51:09.033Z,6.57
2023-01-09T20:53:36.530Z,6.63
2023-01-09T20:56:06.269Z,6.22
2023-01-09T21:01:06.204Z,5.72
2023-01-09T21:03:33.913Z,6.10
2023-01-09T21:06:04.751Z,5.90
2023-01-09T21:08:34.440Z,5.85
2023-01-09T21:11:02.281Z,5.97
2023-01-09T21:13:30.098Z,5.32
2023-01-09T21:16:01.362Z,5.72
2023-01-09T21:18:28.945Z,5.88
2023-01-09T21:20:56.763Z,5.72
2023-01-09T21:23:24.524Z,5.85
2023-01-09T21:25:53.474Z,5.38
2023-01-09T21:28:20.911Z,5.00
2023-01-09T21:30:48.584Z,4.85
2023-01-09T21:33:16.841Z,5.70
2023-01-09T21:35:44.295Z,4.90
2023-01-09T21:38:12.055Z,5.18
2023-01-09T21:40:39.600Z,5.63
2023-01-09T21:43:10.471Z,4.95
2023-01-09T21:45:38.568Z,5.13
2023-01-09T21:48:07.033Z,5.88
2023-01-09T21:50:35.092Z,5.50
2023-01-09T21:53:02.832Z,5.15
2023-01-09T21:55:30.430Z,5.22
2023-01-09T21:57:58.185Z,5.18
2023-01-09T22:00:28.109Z,5.85
2023-01-09T22:02:55.936Z,5.75
2023-01-09T22:05:23.611Z,5.65
2023-01-09T22:07:51.179Z,5.50
2023-01-09T22:10:18.961Z,5.78
2023-01-09T22:12:50.388Z,5.88
2023-01-09T22:15:17.831Z,5.70
2023-01-09T22:17:46.742Z,5.63
2023-01-09T22:20:14.420Z,5.72
2023-01-09T22:22:41.976Z,5.15
2023-01-09T22:25:10.144Z,5.72
2023-01-09T22:27:37.616Z,5.68
2023-01-09T22:30:06.019Z,5.70
2023-01-09T22:32:35.093Z,5.45
2023-01-09T22:35:05.784Z,5.60
2023-01-09T22:37:34.240Z,5.80
2023-01-09T22:40:02.091Z,5.28
2023-01-09T22:42:29.532Z,5.32
2023-01-09T22:44:56.953Z,5.53
2023-01-09T22:47:24.391Z,5.50
2023-01-09T22:49:53.359Z,5.32
2023-01-09T22:52:23.226Z,5.22
2023-01-09T22:54:50.735Z,5.45
2023-01-09T22:57:18.174Z,5.90
2023-01-09T22:59:45.613Z,5.72
2023-01-09T23:02:13.189Z,6.63
2023-01-09T23:04:40.819Z,5.63
2023-01-09T23:07:08.260Z,6.07
2023-01-09T23:09:37.483Z,6.07
2023-01-09T23:12:05.814Z,5.37
2023-01-09T23:14:35.617Z,5.63
2023-01-09T23:19:30.654Z,6.03
2023-01-09T23:21:58.216Z,6.20
2023-01-09T23:24:27.933Z,6.32
2023-01-09T23:26:58.079Z,6.63
2023-01-09T23:29:26.338Z,5.68
2023-01-09T23:31:54.034Z,5.68
2023-01-09T23:34:22.937Z,5.80
2023-01-09T23:36:51.120Z,6.17
2023-01-09T23:39:18.682Z,5.97
2023-01-09T23:41:46.148Z,5.97
2023-01-09T23:44:15.078Z,6.03
2023-01-09T23:46:42.505Z,6.70
2023-01-09T23:49:10.129Z,5.95
2023-01-09T23:51:37.535Z,5.72
2023-01-09T23:54:06.962Z,6.53
2023-01-09T23:56:34.815Z,6.22
2023-01-09T23:59:04.744Z,6.60
